sensor_id;sensor_type;location;lat;lon;timestamp;pressure;altitude;pressure_sealevel;temperature;humidity
60417;BME280;46263;44.726;10.396;2024-02-14T00:02:08;101135.94;;;11.39;77.85
60417;BME280;46263;44.726;10.396;2024-02-14T00:04:33;101135.94;;;11.39;77.66
60417;BME280;46263;44.726;10.396;2024-02-14T00:06:59;101135.16;;;11.50;77.11
60417;BME280;46263;44.726;10.396;2024-02-14T00:09:25;101132.66;;;11.52;77.13
60417;BME280;46263;44.726;10.396;2024-02-14T00:11:51;101133.63;;;11.49;77.08
60417;BME280;46263;44.726;10.396;2024-02-14T00:14:17;101136.69;;;11.45;77.25
60417;BME280;46263;44.726;10.396;2024-02-14T00:16:45;101132.63;;;11.41;77.66
60417;BME280;46263;44.726;10.396;2024-02-14T00:19:11;101136.44;;;11.43;77.18
60417;BME280;46263;44.726;10.396;2024-02-14T00:21:37;101130.81;;;11.43;77.45
60417;BME280;46263;44.726;10.396;2024-02-14T00:24:03;101132.91;;;11.54;77.11
60417;BME280;46263;44.726;10.396;2024-02-14T00:26:30;101139.00;;;11.47;77.03
60417;BME280;46263;44.726;10.396;2024-02-14T00:28:56;101142.28;;;11.40;76.71
60417;BME280;46263;44.726;10.396;2024-02-14T00:31:21;101144.34;;;11.45;76.94
60417;BME280;46263;44.726;10.396;2024-02-14T00:33:47;101140.53;;;11.53;76.04
60417;BME280;46263;44.726;10.396;2024-02-14T00:36:12;101143.31;;;11.37;76.53
60417;BME280;46263;44.726;10.396;2024-02-14T00:38:38;101155.03;;;11.30;76.48
60417;BME280;46263;44.726;10.396;2024-02-14T00:41:03;101158.06;;;11.37;76.28
60417;BME280;46263;44.726;10.396;2024-02-14T00:43:29;101160.88;;;11.43;76.08
60417;BME280;46263;44.726;10.396;2024-02-14T00:45:55;101163.41;;;11.41;76.23
60417;BME280;46263;44.726;10.396;2024-02-14T00:48:22;101160.91;;;11.54;75.09
60417;BME280;46263;44.726;10.396;2024-02-14T00:50:48;101160.13;;;11.59;75.32
60417;BME280;46263;44.726;10.396;2024-02-14T00:53:14;101162.38;;;11.77;74.68
60417;BME280;46263;44.726;10.396;2024-02-14T00:55:39;101158.31;;;11.78;74.57
60417;BME280;46263;44.726;10.396;2024-02-14T00:58:05;101164.72;;;11.62;75.26
60417;BME280;46263;44.726;10.396;2024-02-14T01:00:30;101161.38;;;11.52;75.54
60417;BME280;46263;44.726;10.396;2024-02-14T01:02:58;101168.50;;;11.53;76.06
60417;BME280;46263;44.726;10.396;2024-02-14T01:05:24;101167.75;;;11.64;75.45
60417;BME280;46263;44.726;10.396;2024-02-14T01:07:49;101172.31;;;11.67;74.77
60417;BME280;46263;44.726;10.396;2024-02-14T01:10:15;101166.47;;;11.70;74.43
60417;BME280;46263;44.726;10.396;2024-02-14T01:12:40;101173.59;;;11.77;74.47
60417;BME280;46263;44.726;10.396;2024-02-14T01:15:06;101176.41;;;11.77;74.14
60417;BME280;46263;44.726;10.396;2024-02-14T01:17:32;101178.19;;;11.69;73.95
60417;BME280;46263;44.726;10.396;2024-02-14T01:19:58;101175.38;;;11.58;74.76
60417;BME280;46263;44.726;10.396;2024-02-14T01:22:24;101175.38;;;11.47;74.60
60417;BME280;46263;44.726;10.396;2024-02-14T01:24:49;101178.41;;;11.49;75.20
60417;BME280;46263;44.726;10.396;2024-02-14T01:27:15;101180.72;;;11.72;74.45
60417;BME280;46263;44.726;10.396;2024-02-14T01:29:42;101174.34;;;11.88;74.25
60417;BME280;46263;44.726;10.396;2024-02-14T01:32:07;101177.13;;;11.93;73.38
60417;BME280;46263;44.726;10.396;2024-02-14T01:34:35;101180.16;;;11.95;73.31
60417;BME280;46263;44.726;10.396;2024-02-14T01:37:00;101182.47;;;11.92;73.12
60417;BME280;46263;44.726;10.396;2024-02-14T01:39:26;101177.94;;;11.72;73.75
60417;BME280;46263;44.726;10.396;2024-02-14T01:41:51;101173.34;;;11.69;73.52
60417;BME280;46263;44.726;10.396;2024-02-14T01:44:17;101173.84;;;11.79;74.10
60417;BME280;46263;44.726;10.396;2024-02-14T01:46:44;101179.47;;;11.68;73.91
60417;BME280;46263;44.726;10.396;2024-02-14T01:49:11;101171.06;;;11.62;74.64
60417;BME280;46263;44.726;10.396;2024-02-14T01:51:42;101172.31;;;11.61;74.43
60417;BME280;46263;44.726;10.396;2024-02-14T01:54:11;101166.47;;;11.70;75.02
60417;BME280;46263;44.726;10.396;2024-02-14T01:56:38;101169.25;;;11.76;74.91
60417;BME280;46263;44.726;10.396;2024-02-14T01:59:03;101170.78;;;11.82;74.32
60417;BME280;46263;44.726;10.396;2024-02-14T02:01:31;101175.34;;;11.91;74.00
60417;BME280;46263;44.726;10.396;2024-02-14T02:03:57;101175.34;;;11.85;74.17
60417;BME280;46263;44.726;10.396;2024-02-14T02:06:22;101176.13;;;11.64;75.20
60417;BME280;46263;44.726;10.396;2024-02-14T02:08:48;101176.91;;;11.59;75.28
60417;BME280;46263;44.726;10.396;2024-02-14T02:11:14;101180.22;;;11.63;75.15
60417;BME280;46263;44.726;10.396;2024-02-14T02:13:40;101179.94;;;11.50;75.59
60417;BME280;46263;44.726;10.396;2024-02-14T02:16:06;101180.97;;;11.47;75.70
60417;BME280;46263;44.726;10.396;2024-02-14T02:18:32;101179.94;;;11.50;75.35
60417;BME280;46263;44.726;10.396;2024-02-14T02:20:58;101179.22;;;11.55;75.51
60417;BME280;46263;44.726;10.396;2024-02-14T02:23:23;101177.19;;;11.61;75.53
60417;BME280;46263;44.726;10.396;2024-02-14T02:25:49;101175.66;;;11.71;74.77
60417;BME280;46263;44.726;10.396;2024-02-14T02:28:16;101182.50;;;11.70;74.76
60417;BME280;46263;44.726;10.396;2024-02-14T02:30:42;101183.03;;;11.63;74.80
60417;BME280;46263;44.726;10.396;2024-02-14T02:33:07;101178.19;;;11.74;74.64
60417;BME280;46263;44.726;10.396;2024-02-14T02:35:34;101174.88;;;11.76;74.69
60417;BME280;46263;44.726;10.396;2024-02-14T02:38:00;101173.06;;;11.67;75.15
60417;BME280;46263;44.726;10.396;2024-02-14T02:40:25;101171.06;;;11.79;75.67
60417;BME280;46263;44.726;10.396;2024-02-14T02:42:53;101167.47;;;11.84;74.88
60417;BME280;46263;44.726;10.396;2024-02-14T02:45:19;101169.78;;;11.69;74.76
60417;BME280;46263;44.726;10.396;2024-02-14T02:47:44;101178.41;;;11.43;75.11
60417;BME280;46263;44.726;10.396;2024-02-14T02:50:10;101176.63;;;11.35;76.00
60417;BME280;46263;44.726;10.396;2024-02-14T02:52:35;101176.38;;;11.22;76.70
60417;BME280;46263;44.726;10.396;2024-02-14T02:55:02;101178.16;;;11.30;76.72
60417;BME280;46263;44.726;10.396;2024-02-14T02:57:28;101185.78;;;11.19;77.10
60417;BME280;46263;44.726;10.396;2024-02-14T02:59:54;101191.13;;;11.17;77.45
60417;BME280;46263;44.726;10.396;2024-02-14T03:02:20;101192.16;;;11.14;76.79
60417;BME280;46263;44.726;10.396;2024-02-14T03:04:46;101191.16;;;11.33;76.30
60417;BME280;46263;44.726;10.396;2024-02-14T03:07:12;101186.06;;;11.26;76.09
60417;BME280;46263;44.726;10.396;2024-02-14T03:09:38;101187.81;;;11.24;75.65
60417;BME280;46263;44.726;10.396;2024-02-14T03:12:03;101186.81;;;11.27;75.45
60417;BME280;46263;44.726;10.396;2024-02-14T03:14:32;101181.72;;;11.31;75.69
60417;BME280;46263;44.726;10.396;2024-02-14T03:17:02;101181.47;;;11.51;75.11
60417;BME280;46263;44.726;10.396;2024-02-14T03:19:27;101187.09;;;11.56;74.56
60417;BME280;46263;44.726;10.396;2024-02-14T03:21:54;101180.22;;;11.68;74.92
60417;BME280;46263;44.726;10.396;2024-02-14T03:24:19;101180.22;;;11.74;74.50
60417;BME280;46263;44.726;10.396;2024-02-14T03:26:45;101184.03;;;11.71;73.79
60417;BME280;46263;44.726;10.396;2024-02-14T03:29:12;101186.56;;;11.80;73.61
60417;BME280;46263;44.726;10.396;2024-02-14T03:31:38;101186.31;;;11.72;74.07
60417;BME280;46263;44.726;10.396;2024-02-14T03:34:04;101190.91;;;11.70;73.65
60417;BME280;46263;44.726;10.396;2024-02-14T03:36:30;101190.91;;;11.59;73.75
60417;BME280;46263;44.726;10.396;2024-02-14T03:38:58;101186.06;;;11.65;73.54
60417;BME280;46263;44.726;10.396;2024-02-14T03:41:24;101178.69;;;11.67;73.07
60417;BME280;46263;44.726;10.396;2024-02-14T03:43:49;101182.00;;;11.66;73.50
60417;BME280;46263;44.726;10.396;2024-02-14T03:46:18;101196.78;;;11.66;74.33
60417;BME280;46263;44.726;10.396;2024-02-14T03:48:46;101190.13;;;11.69;74.10
60417;BME280;46263;44.726;10.396;2024-02-14T03:51:13;101201.84;;;11.57;74.47
60417;BME280;46263;44.726;10.396;2024-02-14T03:53:39;101200.06;;;11.59;74.12
60417;BME280;46263;44.726;10.396;2024-02-14T03:56:04;101199.31;;;11.59;74.29
60417;BME280;46263;44.726;10.396;2024-02-14T03:58:32;101203.59;;;11.43;74.76
60417;BME280;46263;44.726;10.396;2024-02-14T04:01:01;101208.22;;;11.52;74.23
60417;BME280;46263;44.726;10.396;2024-02-14T04:03:27;101216.59;;;11.46;73.96
60417;BME280;46263;44.726;10.396;2024-02-14T04:05:54;101211.75;;;11.47;74.26
60417;BME280;46263;44.726;10.396;2024-02-14T04:08:19;101209.19;;;11.43;74.03
60417;BME280;46263;44.726;10.396;2024-02-14T04:10:45;101222.97;;;11.47;73.98
60417;BME280;46263;44.726;10.396;2024-02-14T04:13:11;101228.78;;;11.49;74.10
60417;BME280;46263;44.726;10.396;2024-02-14T04:15:36;101227.53;;;11.50;73.96
60417;BME280;46263;44.726;10.396;2024-02-14T04:18:02;101224.97;;;11.46;74.05
60417;BME280;46263;44.726;10.396;2024-02-14T04:20:29;101228.56;;;11.47;74.20
60417;BME280;46263;44.726;10.396;2024-02-14T04:22:55;101217.09;;;11.34;74.01
60417;BME280;46263;44.726;10.396;2024-02-14T04:25:21;101220.38;;;11.21;74.81
60417;BME280;46263;44.726;10.396;2024-02-14T04:27:48;101230.50;;;10.92;75.46
60417;BME280;46263;44.726;10.396;2024-02-14T04:30:13;101223.13;;;10.94;76.23
60417;BME280;46263;44.726;10.396;2024-02-14T04:32:39;101219.09;;;11.06;75.59
60417;BME280;46263;44.726;10.396;2024-02-14T04:35:04;101217.06;;;11.12;75.15
60417;BME280;46263;44.726;10.396;2024-02-14T04:37:30;101218.81;;;11.04;75.09
60417;BME280;46263;44.726;10.396;2024-02-14T04:39:56;101222.13;;;11.08;75.05
60417;BME280;46263;44.726;10.396;2024-02-14T04:42:21;101219.09;;;11.06;75.00
60417;BME280;46263;44.726;10.396;2024-02-14T04:44:47;101216.28;;;11.01;74.95
60417;BME280;46263;44.726;10.396;2024-02-14T04:47:12;101228.47;;;10.98;74.89
60417;BME280;46263;44.726;10.396;2024-02-14T04:49:38;101227.47;;;11.01;74.24
60417;BME280;46263;44.726;10.396;2024-02-14T04:52:04;101231.91;;;10.60;74.58
60417;BME280;46263;44.726;10.396;2024-02-14T04:54:30;101238.41;;;9.99;76.91
60417;BME280;46263;44.726;10.396;2024-02-14T04:56:55;101245.19;;;9.92;78.08
60417;BME280;46263;44.726;10.396;2024-02-14T04:59:21;101240.81;;;10.22;77.56
60417;BME280;46263;44.726;10.396;2024-02-14T05:01:46;101234.13;;;10.45;76.40
60417;BME280;46263;44.726;10.396;2024-02-14T05:04:12;101242.03;;;10.52;76.49
60417;BME280;46263;44.726;10.396;2024-02-14T05:06:38;101240.53;;;10.56;76.47
60417;BME280;46263;44.726;10.396;2024-02-14T05:09:05;101240.75;;;10.53;75.96
60417;BME280;46263;44.726;10.396;2024-02-14T05:11:30;101240.75;;;10.58;76.23
60417;BME280;46263;44.726;10.396;2024-02-14T05:13:56;101246.69;;;10.71;75.90
60417;BME280;46263;44.726;10.396;2024-02-14T05:16:21;101254.09;;;10.85;74.85
60417;BME280;46263;44.726;10.396;2024-02-14T05:18:47;101246.72;;;10.88;75.15
60417;BME280;46263;44.726;10.396;2024-02-14T05:21:13;101255.13;;;10.88;74.75
60417;BME280;46263;44.726;10.396;2024-02-14T05:23:38;101252.06;;;10.91;74.87
60417;BME280;46263;44.726;10.396;2024-02-14T05:26:04;101260.28;;;10.47;76.85
60417;BME280;46263;44.726;10.396;2024-02-14T05:28:30;101260.25;;;10.42;77.18
60417;BME280;46263;44.726;10.396;2024-02-14T05:30:56;101259.22;;;9.98;77.72
60417;BME280;46263;44.726;10.396;2024-02-14T05:33:22;101273.47;;;10.00;77.46
60417;BME280;46263;44.726;10.396;2024-02-14T05:35:52;101268.00;;;10.22;76.29
60417;BME280;46263;44.726;10.396;2024-02-14T05:38:18;101270.91;;;10.02;75.74
60417;BME280;46263;44.726;10.396;2024-02-14T05:40:47;101276.13;;;10.20;75.71
60417;BME280;46263;44.726;10.396;2024-02-14T05:43:13;101282.25;;;10.24;74.68
60417;BME280;46263;44.726;10.396;2024-02-14T05:45:38;101280.94;;;9.88;74.66
60417;BME280;46263;44.726;10.396;2024-02-14T05:48:04;101278.69;;;10.23;74.38
60417;BME280;46263;44.726;10.396;2024-02-14T05:50:30;101279.03;;;10.36;74.73
60417;BME280;46263;44.726;10.396;2024-02-14T05:52:55;101286.16;;;10.42;73.86
60417;BME280;46263;44.726;10.396;2024-02-14T05:55:23;101290.50;;;10.43;74.60
60417;BME280;46263;44.726;10.396;2024-02-14T05:57:50;101290.78;;;10.51;74.26
60417;BME280;46263;44.726;10.396;2024-02-14T06:00:18;101276.63;;;10.60;73.63
60417;BME280;46263;44.726;10.396;2024-02-14T06:02:44;101275.59;;;10.63;73.70
60417;BME280;46263;44.726;10.396;2024-02-14T06:05:10;101275.34;;;10.66;73.23
60417;BME280;46263;44.726;10.396;2024-02-14T06:07:36;101270.81;;;10.69;73.04
60417;BME280;46263;44.726;10.396;2024-02-14T06:10:02;101272.84;;;10.68;73.00
60417;BME280;46263;44.726;10.396;2024-02-14T06:12:28;101278.66;;;10.65;72.49
60417;BME280;46263;44.726;10.396;2024-02-14T06:14:55;101273.31;;;10.61;72.28
60417;BME280;46263;44.726;10.396;2024-02-14T06:17:20;101280.94;;;10.66;72.49
60417;BME280;46263;44.726;10.396;2024-02-14T06:19:46;101292.13;;;10.66;72.25
60417;BME280;46263;44.726;10.396;2024-02-14T06:22:11;101293.16;;;10.63;72.16
60417;BME280;46263;44.726;10.396;2024-02-14T06:24:37;101299.72;;;10.60;72.16
60417;BME280;46263;44.726;10.396;2024-02-14T06:27:02;101299.16;;;10.45;72.84
60417;BME280;46263;44.726;10.396;2024-02-14T06:29:28;101310.31;;;10.45;72.44
60417;BME280;46263;44.726;10.396;2024-02-14T06:31:53;101311.84;;;10.46;72.66
60417;BME280;46263;44.726;10.396;2024-02-14T06:34:19;101317.72;;;10.48;72.39
60417;BME280;46263;44.726;10.396;2024-02-14T06:36:55;101316.97;;;10.53;72.60
60417;BME280;46263;44.726;10.396;2024-02-14T06:39:21;101323.88;;;10.58;72.50
60417;BME280;46263;44.726;10.396;2024-02-14T06:41:46;101327.91;;;10.57;72.29
60417;BME280;46263;44.726;10.396;2024-02-14T06:44:13;101328.16;;;10.53;72.03
60417;BME280;46263;44.726;10.396;2024-02-14T06:46:38;101330.97;;;10.59;71.49
60417;BME280;46263;44.726;10.396;2024-02-14T06:49:04;101334.69;;;10.39;70.94
60417;BME280;46263;44.726;10.396;2024-02-14T06:51:30;101333.66;;;10.42;70.96
60417;BME280;46263;44.726;10.396;2024-02-14T06:53:56;101339.06;;;10.51;71.38
60417;BME280;46263;44.726;10.396;2024-02-14T06:56:22;101343.34;;;10.47;72.56
60417;BME280;46263;44.726;10.396;2024-02-14T06:58:47;101353.03;;;10.51;72.68
60417;BME280;46263;44.726;10.396;2024-02-14T07:01:18;101350.78;;;10.55;72.88
60417;BME280;46263;44.726;10.396;2024-02-14T07:03:47;101364.91;;;10.41;71.66
60417;BME280;46263;44.726;10.396;2024-02-14T07:06:13;101360.28;;;10.32;71.98
60417;BME280;46263;44.726;10.396;2024-02-14T07:08:42;101365.75;;;10.52;72.09
60417;BME280;46263;44.726;10.396;2024-02-14T07:11:07;101348.00;;;10.55;72.01
60417;BME280;46263;44.726;10.396;2024-02-14T07:13:32;101352.13;;;10.65;72.06
60417;BME280;46263;44.726;10.396;2024-02-14T07:15:58;101368.16;;;10.70;71.24
60417;BME280;46263;44.726;10.396;2024-02-14T07:18:23;101364.41;;;10.84;71.00
60417;BME280;46263;44.726;10.396;2024-02-14T07:20:49;101363.69;;;10.89;70.64
60417;BME280;46263;44.726;10.396;2024-02-14T07:23:14;101357.91;;;11.04;69.58
60417;BME280;46263;44.726;10.396;2024-02-14T07:25:40;101366.28;;;11.04;69.02
60417;BME280;46263;44.726;10.396;2024-02-14T07:28:05;101367.63;;;11.19;69.32
60417;BME280;46263;44.726;10.396;2024-02-14T07:30:31;101374.22;;;11.16;68.93
60417;BME280;46263;44.726;10.396;2024-02-14T07:32:56;101385.97;;;11.31;68.79
60417;BME280;46263;44.726;10.396;2024-02-14T07:35:22;101383.47;;;11.33;68.66
60417;BME280;46263;44.726;10.396;2024-02-14T07:37:48;101391.31;;;11.23;69.78
60417;BME280;46263;44.726;10.396;2024-02-14T07:40:14;101393.03;;;11.10;70.22
60417;BME280;46263;44.726;10.396;2024-02-14T07:42:39;101391.78;;;10.69;70.83
60417;BME280;46263;44.726;10.396;2024-02-14T07:45:05;101394.06;;;11.12;70.39
60417;BME280;46263;44.726;10.396;2024-02-14T07:47:30;101402.50;;;11.23;70.19
60417;BME280;46263;44.726;10.396;2024-02-14T07:49:56;101410.44;;;10.89;70.55
60417;BME280;46263;44.726;10.396;2024-02-14T07:52:22;101411.94;;;10.84;71.64
60417;BME280;46263;44.726;10.396;2024-02-14T07:54:52;101422.00;;;10.65;73.10
60417;BME280;46263;44.726;10.396;2024-02-14T07:57:19;101404.72;;;10.67;73.66
60417;BME280;46263;44.726;10.396;2024-02-14T07:59:44;101414.66;;;11.10;72.84
60417;BME280;46263;44.726;10.396;2024-02-14T08:02:10;101414.91;;;11.11;74.23
60417;BME280;46263;44.726;10.396;2024-02-14T08:04:35;101410.19;;;11.34;74.27
60417;BME280;46263;44.726;10.396;2024-02-14T08:07:01;101422.84;;;11.24;75.53
60417;BME280;46263;44.726;10.396;2024-02-14T08:09:26;101425.81;;;11.04;77.40
60417;BME280;46263;44.726;10.396;2024-02-14T08:11:52;101429.69;;;11.17;77.17
60417;BME280;46263;44.726;10.396;2024-02-14T08:14:18;101427.97;;;11.25;76.63
60417;BME280;46263;44.726;10.396;2024-02-14T08:16:44;101428.31;;;11.49;76.55
60417;BME280;46263;44.726;10.396;2024-02-14T08:19:09;101428.13;;;11.64;76.32
60417;BME280;46263;44.726;10.396;2024-02-14T08:21:35;101430.16;;;11.63;76.63
60417;BME280;46263;44.726;10.396;2024-02-14T08:24:01;101436.09;;;12.03;76.21
60417;BME280;46263;44.726;10.396;2024-02-14T08:26:28;101434.06;;;11.98;77.21
60417;BME280;46263;44.726;10.396;2024-02-14T08:28:56;101433.56;;;11.94;76.33
60417;BME280;46263;44.726;10.396;2024-02-14T08:31:23;101440.63;;;11.63;76.75
60417;BME280;46263;44.726;10.396;2024-02-14T08:33:49;101435.34;;;12.03;75.43
60417;BME280;46263;44.726;10.396;2024-02-14T08:36:14;101432.31;;;12.28;76.00
60417;BME280;46263;44.726;10.396;2024-02-14T08:38:42;101426.22;;;12.19;74.03
60417;BME280;46263;44.726;10.396;2024-02-14T08:41:08;101435.63;;;12.05;73.13
60417;BME280;46263;44.726;10.396;2024-02-14T08:43:33;101429.00;;;12.08;73.45
60417;BME280;46263;44.726;10.396;2024-02-14T08:45:59;101422.91;;;12.31;72.15
60417;BME280;46263;44.726;10.396;2024-02-14T08:48:25;101423.41;;;12.52;72.00
60417;BME280;46263;44.726;10.396;2024-02-14T08:50:52;101427.97;;;12.82;69.29
60417;BME280;46263;44.726;10.396;2024-02-14T08:53:18;101422.63;;;12.73;70.71
60417;BME280;46263;44.726;10.396;2024-02-14T08:55:44;101431.81;;;12.52;68.61
60417;BME280;46263;44.726;10.396;2024-02-14T08:58:09;101433.63;;;12.55;69.33
60417;BME280;46263;44.726;10.396;2024-02-14T09:00:35;101434.88;;;12.70;70.03
60417;BME280;46263;44.726;10.396;2024-02-14T09:03:03;101433.56;;;12.98;69.00
60417;BME280;46263;44.726;10.396;2024-02-14T09:05:29;101432.59;;;12.74;68.64
60417;BME280;46263;44.726;10.396;2024-02-14T09:07:55;101435.91;;;12.89;67.91
60417;BME280;46263;44.726;10.396;2024-02-14T09:10:21;101437.13;;;13.10;67.28
60417;BME280;46263;44.726;10.396;2024-02-14T09:12:47;101444.59;;;12.91;67.96
60417;BME280;46263;44.726;10.396;2024-02-14T09:15:13;101446.09;;;12.81;68.77
60417;BME280;46263;44.726;10.396;2024-02-14T09:17:39;101439.22;;;12.71;69.08
60417;BME280;46263;44.726;10.396;2024-02-14T09:20:09;101432.09;;;12.92;69.38
60417;BME280;46263;44.726;10.396;2024-02-14T09:22:36;101435.63;;;12.87;69.95
60417;BME280;46263;44.726;10.396;2024-02-14T09:25:02;101434.09;;;12.91;68.60
60417;BME280;46263;44.726;10.396;2024-02-14T09:27:31;101431.03;;;12.95;68.58
60417;BME280;46263;44.726;10.396;2024-02-14T09:29:58;101429.00;;;12.84;68.54
60417;BME280;46263;44.726;10.396;2024-02-14T09:32:24;101431.75;;;13.12;67.79
60417;BME280;46263;44.726;10.396;2024-02-14T09:34:50;101433.09;;;13.00;67.55
60417;BME280;46263;44.726;10.396;2024-02-14T09:37:16;101436.09;;;13.24;67.77
60417;BME280;46263;44.726;10.396;2024-02-14T09:39:42;101427.75;;;12.91;68.83
60417;BME280;46263;44.726;10.396;2024-02-14T09:42:13;101442.25;;;12.95;68.36
60417;BME280;46263;44.726;10.396;2024-02-14T09:44:40;101436.84;;;13.13;67.56
60417;BME280;46263;44.726;10.396;2024-02-14T09:47:07;101439.97;;;13.04;68.32
60417;BME280;46263;44.726;10.396;2024-02-14T09:49:35;101434.00;;;13.30;67.04
60417;BME280;46263;44.726;10.396;2024-02-14T09:52:02;101434.97;;;13.49;67.37
60417;BME280;46263;44.726;10.396;2024-02-14T09:54:29;101438.44;;;13.65;66.49
60417;BME280;46263;44.726;10.396;2024-02-14T09:56:57;101438.44;;;13.65;66.85
60417;BME280;46263;44.726;10.396;2024-02-14T09:59:24;101436.41;;;13.66;67.12
60417;BME280;46263;44.726;10.396;2024-02-14T10:01:49;101440.94;;;13.80;66.66
60417;BME280;46263;44.726;10.396;2024-02-14T10:04:17;101436.19;;;13.53;67.27
60417;BME280;46263;44.726;10.396;2024-02-14T10:06:45;101443.06;;;13.63;67.12
60417;BME280;46263;44.726;10.396;2024-02-14T10:09:11;101433.66;;;14.01;67.60
60417;BME280;46263;44.726;10.396;2024-02-14T10:11:37;101432.56;;;14.09;66.30
60417;BME280;46263;44.726;10.396;2024-02-14T10:14:06;101431.03;;;14.08;66.67
60417;BME280;46263;44.726;10.396;2024-02-14T10:16:35;101437.91;;;13.72;67.71
60417;BME280;46263;44.726;10.396;2024-02-14T10:19:01;101433.97;;;13.92;66.46
60417;BME280;46263;44.726;10.396;2024-02-14T10:21:27;101426.78;;;13.96;66.66
60417;BME280;46263;44.726;10.396;2024-02-14T10:23:54;101422.63;;;14.14;65.65
60417;BME280;46263;44.726;10.396;2024-02-14T10:26:23;101433.66;;;14.01;66.07
60417;BME280;46263;44.726;10.396;2024-02-14T10:28:48;101427.66;;;14.21;66.72
60417;BME280;46263;44.726;10.396;2024-02-14T10:31:16;101423.38;;;14.14;66.93
60417;BME280;46263;44.726;10.396;2024-02-14T10:33:42;101416.81;;;14.35;66.24
60417;BME280;46263;44.726;10.396;2024-02-14T10:36:08;101414.78;;;14.36;67.13
60417;BME280;46263;44.726;10.396;2024-02-14T10:38:34;101418.88;;;14.35;65.92
60417;BME280;46263;44.726;10.396;2024-02-14T10:41:02;101414.16;;;14.19;65.84
60417;BME280;46263;44.726;10.396;2024-02-14T10:43:31;101424.53;;;14.30;65.98
60417;BME280;46263;44.726;10.396;2024-02-14T10:46:00;101427.28;;;14.40;65.86
60417;BME280;46263;44.726;10.396;2024-02-14T10:48:35;101416.81;;;14.65;65.34
60417;BME280;46263;44.726;10.396;2024-02-14T10:51:04;101416.88;;;14.83;64.28
60417;BME280;46263;44.726;10.396;2024-02-14T10:53:33;101423.06;;;14.82;64.39
60417;BME280;46263;44.726;10.396;2024-02-14T10:56:00;101410.13;;;14.97;64.81
60417;BME280;46263;44.726;10.396;2024-02-14T10:58:30;101401.88;;;14.99;63.98
60417;BME280;46263;44.726;10.396;2024-02-14T11:00:58;101406.06;;;14.93;63.90
60417;BME280;46263;44.726;10.396;2024-02-14T11:03:24;101406.13;;;14.87;64.23
60417;BME280;46263;44.726;10.396;2024-02-14T11:05:53;101412.19;;;14.91;63.65
60417;BME280;46263;44.726;10.396;2024-02-14T11:08:28;101400.78;;;15.08;63.26
60417;BME280;46263;44.726;10.396;2024-02-14T11:10:56;101409.22;;;14.84;64.03
60417;BME280;46263;44.726;10.396;2024-02-14T11:13:28;101405.88;;;14.85;64.67
60417;BME280;46263;44.726;10.396;2024-02-14T11:15:56;101407.28;;;14.73;64.59
60417;BME280;46263;44.726;10.396;2024-02-14T11:18:27;101405.22;;;14.98;65.13
60417;BME280;46263;44.726;10.396;2024-02-14T11:20:55;101407.69;;;14.83;66.65
60417;BME280;46263;44.726;10.396;2024-02-14T11:23:23;101400.59;;;15.00;67.15
60417;BME280;46263;44.726;10.396;2024-02-14T11:25:49;101409.81;;;14.77;66.36
60417;BME280;46263;44.726;10.396;2024-02-14T11:28:19;101404.53;;;14.68;66.57
60417;BME280;46263;44.726;10.396;2024-02-14T11:30:49;101407.69;;;14.83;68.62
60417;BME280;46263;44.726;10.396;2024-02-14T11:35:51;101399.69;;;15.11;65.61
60417;BME280;46263;44.726;10.396;2024-02-14T11:38:21;101401.38;;;15.01;63.83
60417;BME280;46263;44.726;10.396;2024-02-14T11:40:47;101395.78;;;15.19;63.37
60417;BME280;46263;44.726;10.396;2024-02-14T11:43:15;101387.25;;;15.48;64.09
60417;BME280;46263;44.726;10.396;2024-02-14T11:45:43;101395.78;;;15.61;63.89
60417;BME280;46263;44.726;10.396;2024-02-14T11:48:12;101394.53;;;15.75;61.99
60417;BME280;46263;44.726;10.396;2024-02-14T11:50:42;101392.72;;;15.59;60.87
60417;BME280;46263;44.726;10.396;2024-02-14T11:53:12;101390.31;;;15.50;62.45
60417;BME280;46263;44.726;10.396;2024-02-14T11:55:39;101391.34;;;15.29;62.49
60417;BME280;46263;44.726;10.396;2024-02-14T11:58:09;101386.63;;;15.55;62.92
60417;BME280;46263;44.726;10.396;2024-02-14T12:00:46;101379.59;;;15.43;62.43
60417;BME280;46263;44.726;10.396;2024-02-14T12:03:17;101382.34;;;15.67;62.99
60417;BME280;46263;44.726;10.396;2024-02-14T12:05:45;101381.59;;;15.67;59.18
60417;BME280;46263;44.726;10.396;2024-02-14T12:08:13;101380.00;;;15.90;58.77
60417;BME280;46263;44.726;10.396;2024-02-14T12:10:39;101371.22;;;15.93;59.75
60417;BME280;46263;44.726;10.396;2024-02-14T12:13:08;101362.50;;;16.09;59.63
60417;BME280;46263;44.726;10.396;2024-02-14T12:15:41;101357.72;;;16.04;59.40
60417;BME280;46263;44.726;10.396;2024-02-14T12:18:10;101349.94;;;15.92;57.69
60417;BME280;46263;44.726;10.396;2024-02-14T12:20:36;101355.78;;;15.81;56.59
60417;BME280;46263;44.726;10.396;2024-02-14T12:23:02;101353.25;;;15.96;56.50
60417;BME280;46263;44.726;10.396;2024-02-14T12:25:29;101344.47;;;15.99;56.55
60417;BME280;46263;44.726;10.396;2024-02-14T12:27:58;101345.59;;;16.09;56.95
60417;BME280;46263;44.726;10.396;2024-02-14T12:30:52;101352.19;;;15.99;57.53
60417;BME280;46263;44.726;10.396;2024-02-14T12:33:21;101348.81;;;16.00;57.06
60417;BME280;46263;44.726;10.396;2024-02-14T12:35:53;101341.81;;;16.20;58.20
60417;BME280;46263;44.726;10.396;2024-02-14T12:38:19;101336.84;;;16.26;57.09
60417;BME280;46263;44.726;10.396;2024-02-14T12:40:45;101328.56;;;16.46;56.18